sensor_id;sensor_type;location;lat;lon;timestamp;P1;durP1;ratioP1;P2;durP2;ratioP2
39344;SDS011;25061;51.954;6.996;2022-11-20T00:01:16;17.70;;;8.20;;
39344;SDS011;25061;51.954;6.996;2022-11-20T00:03:42;18.90;;;8.35;;
39344;SDS011;25061;51.954;6.996;2022-11-20T00:06:09;16.43;;;8.00;;
39344;SDS011;25061;51.954;6.996;2022-11-20T00:08:36;17.57;;;7.73;;
39344;SDS011;25061;51.954;6.996;2022-11-20T00:11:06;15.77;;;7.43;;
39344;SDS011;25061;51.954;6.996;2022-11-20T00:13:32;19.87;;;9.00;;
39344;SDS011;25061;51.954;6.996;2022-11-20T00:15:59;21.57;;;9.57;;
39344;SDS011;25061;51.954;6.996;2022-11-20T00:18:26;20.70;;;9.30;;
39344;SDS011;25061;51.954;6.996;2022-11-20T00:20:52;19.83;;;8.37;;
39344;SDS011;25061;51.954;6.996;2022-11-20T00:23:18;16.80;;;7.27;;
39344;SDS011;25061;51.954;6.996;2022-11-20T00:25:45;18.17;;;8.27;;
39344;SDS011;25061;51.954;6.996;2022-11-20T00:28:11;17.20;;;8.23;;
39344;SDS011;25061;51.954;6.996;2022-11-20T00:30:37;15.90;;;7.53;;
39344;SDS011;25061;51.954;6.996;2022-11-20T00:33:03;17.13;;;8.70;;
39344;SDS011;25061;51.954;6.996;2022-11-20T00:35:29;18.23;;;9.00;;
39344;SDS011;25061;51.954;6.996;2022-11-20T00:37:55;20.03;;;8.50;;
39344;SDS011;25061;51.954;6.996;2022-11-20T00:40:21;18.60;;;8.67;;
39344;SDS011;25061;51.954;6.996;2022-11-20T00:42:47;22.00;;;9.67;;
39344;SDS011;25061;51.954;6.996;2022-11-20T00:45:13;18.87;;;8.37;;
39344;SDS011;25061;51.954;6.996;2022-11-20T00:47:39;17.40;;;7.77;;
39344;SDS011;25061;51.954;6.996;2022-11-20T00:50:05;19.60;;;8.33;;
39344;SDS011;25061;51.954;6.996;2022-11-20T00:52:31;17.33;;;8.17;;
39344;SDS011;25061;51.954;6.996;2022-11-20T00:54:57;16.87;;;7.77;;
39344;SDS011;25061;51.954;6.996;2022-11-20T00:57:22;19.63;;;8.13;;
39344;SDS011;25061;51.954;6.996;2022-11-20T00:59:48;18.00;;;8.40;;
39344;SDS011;25061;51.954;6.996;2022-11-20T01:02:14;16.83;;;7.93;;
39344;SDS011;25061;51.954;6.996;2022-11-20T01:04:41;18.43;;;8.20;;
39344;SDS011;25061;51.954;6.996;2022-11-20T01:07:07;18.90;;;8.67;;
39344;SDS011;25061;51.954;6.996;2022-11-20T01:09:33;17.23;;;7.70;;
39344;SDS011;25061;51.954;6.996;2022-11-20T01:11:59;18.13;;;7.47;;
39344;SDS011;25061;51.954;6.996;2022-11-20T01:14:25;17.70;;;8.13;;
39344;SDS011;25061;51.954;6.996;2022-11-20T01:16:51;15.80;;;8.33;;
39344;SDS011;25061;51.954;6.996;2022-11-20T01:19:18;17.23;;;7.73;;
39344;SDS011;25061;51.954;6.996;2022-11-20T01:21:45;19.63;;;9.07;;
39344;SDS011;25061;51.954;6.996;2022-11-20T01:24:12;16.43;;;7.97;;
39344;SDS011;25061;51.954;6.996;2022-11-20T01:26:39;14.93;;;7.60;;
39344;SDS011;25061;51.954;6.996;2022-11-20T01:29:05;16.00;;;7.30;;
39344;SDS011;25061;51.954;6.996;2022-11-20T01:31:33;15.57;;;7.47;;
39344;SDS011;25061;51.954;6.996;2022-11-20T01:34:00;15.97;;;7.47;;
39344;SDS011;25061;51.954;6.996;2022-11-20T01:36:27;15.53;;;7.10;;
39344;SDS011;25061;51.954;6.996;2022-11-20T01:38:54;15.13;;;7.00;;
39344;SDS011;25061;51.954;6.996;2022-11-20T01:41:20;15.97;;;6.97;;
39344;SDS011;25061;51.954;6.996;2022-11-20T01:44:05;15.53;;;7.67;;
39344;SDS011;25061;51.954;6.996;2022-11-20T01:46:31;18.93;;;8.17;;
39344;SDS011;25061;51.954;6.996;2022-11-20T01:51:32;15.10;;;6.83;;
39344;SDS011;25061;51.954;6.996;2022-11-20T01:54:00;15.83;;;7.43;;
39344;SDS011;25061;51.954;6.996;2022-11-20T01:56:26;17.93;;;7.50;;
39344;SDS011;25061;51.954;6.996;2022-11-20T01:58:55;15.90;;;7.77;;
39344;SDS011;25061;51.954;6.996;2022-11-20T02:01:22;15.80;;;7.43;;
39344;SDS011;25061;51.954;6.996;2022-11-20T02:03:48;19.67;;;7.23;;
39344;SDS011;25061;51.954;6.996;2022-11-20T02:06:19;16.40;;;7.63;;
39344;SDS011;25061;51.954;6.996;2022-11-20T02:08:47;15.07;;;6.93;;
39344;SDS011;25061;51.954;6.996;2022-11-20T02:11:13;14.57;;;7.53;;
39344;SDS011;25061;51.954;6.996;2022-11-20T02:13:39;15.80;;;7.17;;
39344;SDS011;25061;51.954;6.996;2022-11-20T02:16:53;19.17;;;7.87;;
39344;SDS011;25061;51.954;6.996;2022-11-20T02:18:55;15.20;;;7.23;;
39344;SDS011;25061;51.954;6.996;2022-11-20T02:24:25;16.40;;;6.67;;
39344;SDS011;25061;51.954;6.996;2022-11-20T02:29:37;15.73;;;7.20;;
39344;SDS011;25061;51.954;6.996;2022-11-20T02:32:05;16.90;;;7.10;;
39344;SDS011;25061;51.954;6.996;2022-11-20T02:34:31;18.17;;;7.60;;
39344;SDS011;25061;51.954;6.996;2022-11-20T02:36:57;15.80;;;7.33;;
39344;SDS011;25061;51.954;6.996;2022-11-20T02:39:25;18.07;;;7.57;;
39344;SDS011;25061;51.954;6.996;2022-11-20T02:41:52;16.03;;;7.47;;
39344;SDS011;25061;51.954;6.996;2022-11-20T02:44:19;14.87;;;6.83;;
39344;SDS011;25061;51.954;6.996;2022-11-20T02:46:45;16.37;;;7.87;;
39344;SDS011;25061;51.954;6.996;2022-11-20T02:49:11;17.73;;;7.43;;
39344;SDS011;25061;51.954;6.996;2022-11-20T02:51:37;16.00;;;8.40;;
39344;SDS011;25061;51.954;6.996;2022-11-20T02:54:04;22.53;;;9.03;;
39344;SDS011;25061;51.954;6.996;2022-11-20T02:56:30;16.93;;;7.67;;
39344;SDS011;25061;51.954;6.996;2022-11-20T02:58:56;15.77;;;7.40;;
39344;SDS011;25061;51.954;6.996;2022-11-20T03:01:22;17.93;;;7.63;;
39344;SDS011;25061;51.954;6.996;2022-11-20T03:03:48;16.33;;;7.60;;
39344;SDS011;25061;51.954;6.996;2022-11-20T03:06:15;13.53;;;7.00;;
39344;SDS011;25061;51.954;6.996;2022-11-20T03:08:41;16.97;;;7.30;;
39344;SDS011;25061;51.954;6.996;2022-11-20T03:11:07;14.33;;;6.33;;
39344;SDS011;25061;51.954;6.996;2022-11-20T03:13:33;16.80;;;6.87;;
39344;SDS011;25061;51.954;6.996;2022-11-20T03:16:13;15.07;;;7.33;;
39344;SDS011;25061;51.954;6.996;2022-11-20T03:21:09;15.27;;;6.90;;
39344;SDS011;25061;51.954;6.996;2022-11-20T03:23:37;12.83;;;6.03;;
39344;SDS011;25061;51.954;6.996;2022-11-20T03:26:07;16.27;;;6.70;;
39344;SDS011;25061;51.954;6.996;2022-11-20T03:28:33;16.13;;;6.63;;
39344;SDS011;25061;51.954;6.996;2022-11-20T03:31:04;17.27;;;6.90;;
39344;SDS011;25061;51.954;6.996;2022-11-20T03:33:30;14.80;;;6.53;;
39344;SDS011;25061;51.954;6.996;2022-11-20T03:36:00;12.53;;;5.70;;
39344;SDS011;25061;51.954;6.996;2022-11-20T03:38:28;17.37;;;7.57;;
39344;SDS011;25061;51.954;6.996;2022-11-20T03:40:57;15.47;;;6.47;;
39344;SDS011;25061;51.954;6.996;2022-11-20T03:43:23;15.43;;;6.50;;
39344;SDS011;25061;51.954;6.996;2022-11-20T03:45:49;14.47;;;6.57;;
39344;SDS011;25061;51.954;6.996;2022-11-20T03:48:15;14.77;;;6.80;;
39344;SDS011;25061;51.954;6.996;2022-11-20T03:50:41;14.40;;;6.60;;
39344;SDS011;25061;51.954;6.996;2022-11-20T03:53:07;15.53;;;6.20;;
39344;SDS011;25061;51.954;6.996;2022-11-20T03:55:33;14.60;;;6.33;;
39344;SDS011;25061;51.954;6.996;2022-11-20T03:57:59;16.40;;;6.77;;
39344;SDS011;25061;51.954;6.996;2022-11-20T04:00:24;15.13;;;6.43;;
39344;SDS011;25061;51.954;6.996;2022-11-20T04:02:50;18.03;;;7.03;;
39344;SDS011;25061;51.954;6.996;2022-11-20T04:05:16;15.33;;;6.53;;
39344;SDS011;25061;51.954;6.996;2022-11-20T04:07:42;16.60;;;6.80;;
39344;SDS011;25061;51.954;6.996;2022-11-20T04:10:08;15.60;;;6.90;;
39344;SDS011;25061;51.954;6.996;2022-11-20T04:12:34;15.63;;;6.80;;
39344;SDS011;25061;51.954;6.996;2022-11-20T04:15:00;17.17;;;7.37;;
39344;SDS011;25061;51.954;6.996;2022-11-20T04:17:26;14.97;;;6.93;;
39344;SDS011;25061;51.954;6.996;2022-11-20T04:19:52;13.93;;;6.20;;
39344;SDS011;25061;51.954;6.996;2022-11-20T04:22:18;13.40;;;6.10;;
39344;SDS011;25061;51.954;6.996;2022-11-20T04:24:44;15.10;;;6.83;;
39344;SDS011;25061;51.954;6.996;2022-11-20T04:27:10;16.03;;;7.07;;
39344;SDS011;25061;51.954;6.996;2022-11-20T04:29:36;19.73;;;7.53;;
39344;SDS011;25061;51.954;6.996;2022-11-20T04:32:02;18.17;;;7.30;;
39344;SDS011;25061;51.954;6.996;2022-11-20T04:34:27;18.43;;;7.93;;
39344;SDS011;25061;51.954;6.996;2022-11-20T04:36:53;16.57;;;7.20;;
39344;SDS011;25061;51.954;6.996;2022-11-20T04:39:19;17.27;;;7.73;;
39344;SDS011;25061;51.954;6.996;2022-11-20T04:41:45;15.80;;;7.30;;
39344;SDS011;25061;51.954;6.996;2022-11-20T04:44:11;20.47;;;7.37;;
39344;SDS011;25061;51.954;6.996;2022-11-20T04:46:41;15.53;;;7.27;;
39344;SDS011;25061;51.954;6.996;2022-11-20T04:49:07;15.40;;;7.30;;
39344;SDS011;25061;51.954;6.996;2022-11-20T04:51:34;16.87;;;7.13;;
39344;SDS011;25061;51.954;6.996;2022-11-20T04:54:00;16.40;;;5.90;;
39344;SDS011;25061;51.954;6.996;2022-11-20T04:56:26;18.80;;;8.40;;
39344;SDS011;25061;51.954;6.996;2022-11-20T04:58:52;16.47;;;7.73;;
39344;SDS011;25061;51.954;6.996;2022-11-20T05:01:19;16.70;;;6.97;;
39344;SDS011;25061;51.954;6.996;2022-11-20T05:03:45;19.00;;;7.83;;
39344;SDS011;25061;51.954;6.996;2022-11-20T05:06:12;14.17;;;6.57;;
39344;SDS011;25061;51.954;6.996;2022-11-20T05:08:38;14.70;;;6.23;;
39344;SDS011;25061;51.954;6.996;2022-11-20T05:11:12;14.43;;;5.97;;
39344;SDS011;25061;51.954;6.996;2022-11-20T05:13:38;13.47;;;5.90;;
39344;SDS011;25061;51.954;6.996;2022-11-20T05:16:14;14.83;;;6.37;;
39344;SDS011;25061;51.954;6.996;2022-11-20T05:18:40;14.53;;;6.57;;
39344;SDS011;25061;51.954;6.996;2022-11-20T05:21:07;14.70;;;6.67;;
39344;SDS011;25061;51.954;6.996;2022-11-20T05:23:33;14.30;;;6.43;;
39344;SDS011;25061;51.954;6.996;2022-11-20T05:26:00;14.73;;;6.03;;
39344;SDS011;25061;51.954;6.996;2022-11-20T05:28:26;16.43;;;6.40;;
39344;SDS011;25061;51.954;6.996;2022-11-20T05:30:52;14.37;;;6.70;;
39344;SDS011;25061;51.954;6.996;2022-11-20T05:33:18;14.57;;;6.37;;
39344;SDS011;25061;51.954;6.996;2022-11-20T05:35:44;13.20;;;6.13;;
39344;SDS011;25061;51.954;6.996;2022-11-20T05:38:11;16.27;;;5.97;;
39344;SDS011;25061;51.954;6.996;2022-11-20T05:40:37;13.13;;;5.73;;
39344;SDS011;25061;51.954;6.996;2022-11-20T05:43:03;13.80;;;6.47;;
39344;SDS011;25061;51.954;6.996;2022-11-20T05:45:29;16.10;;;6.97;;
39344;SDS011;25061;51.954;6.996;2022-11-20T05:47:57;15.97;;;6.10;;
39344;SDS011;25061;51.954;6.996;2022-11-20T05:50:24;14.53;;;6.20;;
39344;SDS011;25061;51.954;6.996;2022-11-20T05:52:50;15.43;;;7.00;;
39344;SDS011;25061;51.954;6.996;2022-11-20T05:55:16;12.73;;;5.83;;
39344;SDS011;25061;51.954;6.996;2022-11-20T05:57:42;15.20;;;6.60;;
39344;SDS011;25061;51.954;6.996;2022-11-20T06:00:08;15.47;;;6.97;;
39344;SDS011;25061;51.954;6.996;2022-11-20T06:02:35;16.87;;;6.47;;
39344;SDS011;25061;51.954;6.996;2022-11-20T06:05:01;15.27;;;6.63;;
39344;SDS011;25061;51.954;6.996;2022-11-20T06:07:27;15.60;;;6.80;;
39344;SDS011;25061;51.954;6.996;2022-11-20T06:09:53;17.03;;;7.23;;
39344;SDS011;25061;51.954;6.996;2022-11-20T06:12:19;15.67;;;6.53;;
39344;SDS011;25061;51.954;6.996;2022-11-20T06:14:45;15.20;;;6.07;;
39344;SDS011;25061;51.954;6.996;2022-11-20T06:17:11;16.07;;;7.17;;
39344;SDS011;25061;51.954;6.996;2022-11-20T06:19:37;14.33;;;6.47;;
39344;SDS011;25061;51.954;6.996;2022-11-20T06:22:03;16.97;;;7.40;;
39344;SDS011;25061;51.954;6.996;2022-11-20T06:24:29;14.20;;;6.63;;
39344;SDS011;25061;51.954;6.996;2022-11-20T06:26:55;16.57;;;6.60;;
39344;SDS011;25061;51.954;6.996;2022-11-20T06:29:20;17.53;;;7.67;;
39344;SDS011;25061;51.954;6.996;2022-11-20T06:31:46;17.23;;;7.83;;
39344;SDS011;25061;51.954;6.996;2022-11-20T06:34:13;15.47;;;7.33;;
39344;SDS011;25061;51.954;6.996;2022-11-20T06:36:38;16.67;;;7.17;;
39344;SDS011;25061;51.954;6.996;2022-11-20T06:39:04;16.93;;;7.17;;
39344;SDS011;25061;51.954;6.996;2022-11-20T06:41:30;17.23;;;7.93;;
39344;SDS011;25061;51.954;6.996;2022-11-20T06:43:56;18.53;;;7.50;;
39344;SDS011;25061;51.954;6.996;2022-11-20T06:46:22;21.67;;;7.97;;
39344;SDS011;25061;51.954;6.996;2022-11-20T06:48:48;17.37;;;7.57;;
39344;SDS011;25061;51.954;6.996;2022-11-20T06:51:15;19.43;;;7.93;;
39344;SDS011;25061;51.954;6.996;2022-11-20T06:53:41;19.27;;;7.97;;
39344;SDS011;25061;51.954;6.996;2022-11-20T06:56:07;16.17;;;7.13;;
39344;SDS011;25061;51.954;6.996;2022-11-20T06:58:34;21.03;;;8.23;;
39344;SDS011;25061;51.954;6.996;2022-11-20T07:01:00;15.97;;;7.13;;
39344;SDS011;25061;51.954;6.996;2022-11-20T07:03:26;15.17;;;6.87;;
39344;SDS011;25061;51.954;6.996;2022-11-20T07:05:56;17.63;;;7.67;;
39344;SDS011;25061;51.954;6.996;2022-11-20T07:08:23;19.07;;;7.97;;
39344;SDS011;25061;51.954;6.996;2022-11-20T07:10:49;17.13;;;7.17;;
39344;SDS011;25061;51.954;6.996;2022-11-20T07:13:15;16.40;;;6.60;;
39344;SDS011;25061;51.954;6.996;2022-11-20T07:15:41;17.20;;;6.90;;
39344;SDS011;25061;51.954;6.996;2022-11-20T07:18:07;15.90;;;7.63;;
39344;SDS011;25061;51.954;6.996;2022-11-20T07:20:33;20.47;;;9.43;;
39344;SDS011;25061;51.954;6.996;2022-11-20T07:22:58;19.60;;;8.83;;
39344;SDS011;25061;51.954;6.996;2022-11-20T07:25:28;20.47;;;9.33;;
39344;SDS011;25061;51.954;6.996;2022-11-20T07:27:58;23.73;;;10.50;;
39344;SDS011;25061;51.954;6.996;2022-11-20T07:30:25;32.23;;;15.73;;
39344;SDS011;25061;51.954;6.996;2022-11-20T07:32:51;26.93;;;13.83;;
39344;SDS011;25061;51.954;6.996;2022-11-20T07:35:17;30.23;;;14.13;;
39344;SDS011;25061;51.954;6.996;2022-11-20T07:37:43;30.03;;;13.17;;
39344;SDS011;25061;51.954;6.996;2022-11-20T07:40:10;46.57;;;18.70;;
39344;SDS011;25061;51.954;6.996;2022-11-20T07:42:37;54.80;;;24.77;;
39344;SDS011;25061;51.954;6.996;2022-11-20T07:45:03;43.57;;;21.73;;
39344;SDS011;25061;51.954;6.996;2022-11-20T07:47:34;45.43;;;21.43;;
39344;SDS011;25061;51.954;6.996;2022-11-20T07:50:00;37.97;;;19.17;;
39344;SDS011;25061;51.954;6.996;2022-11-20T07:52:26;27.10;;;13.73;;
39344;SDS011;25061;51.954;6.996;2022-11-20T07:54:52;29.97;;;13.63;;
39344;SDS011;25061;51.954;6.996;2022-11-20T07:57:17;23.23;;;12.30;;
39344;SDS011;25061;51.954;6.996;2022-11-20T07:59:43;25.40;;;11.40;;
39344;SDS011;25061;51.954;6.996;2022-11-20T08:02:10;23.83;;;12.07;;
39344;SDS011;25061;51.954;6.996;2022-11-20T08:04:36;23.30;;;11.03;;
39344;SDS011;25061;51.954;6.996;2022-11-20T08:07:02;20.77;;;9.57;;
39344;SDS011;25061;51.954;6.996;2022-11-20T08:09:28;16.77;;;8.97;;
39344;SDS011;25061;51.954;6.996;2022-11-20T08:11:54;20.73;;;9.77;;
39344;SDS011;25061;51.954;6.996;2022-11-20T08:14:39;23.97;;;12.00;;
39344;SDS011;25061;51.954;6.996;2022-11-20T08:17:05;25.13;;;12.23;;
39344;SDS011;25061;51.954;6.996;2022-11-20T08:19:31;21.43;;;10.23;;
39344;SDS011;25061;51.954;6.996;2022-11-20T08:21:57;17.47;;;9.40;;
39344;SDS011;25061;51.954;6.996;2022-11-20T08:24:23;20.17;;;10.00;;
39344;SDS011;25061;51.954;6.996;2022-11-20T08:26:49;18.03;;;8.33;;
39344;SDS011;25061;51.954;6.996;2022-11-20T08:29:15;18.50;;;9.37;;
39344;SDS011;25061;51.954;6.996;2022-11-20T08:31:41;23.73;;;8.73;;
39344;SDS011;25061;51.954;6.996;2022-11-20T08:34:07;17.63;;;8.33;;
39344;SDS011;25061;51.954;6.996;2022-11-20T08:36:36;16.00;;;7.67;;
39344;SDS011;25061;51.954;6.996;2022-11-20T08:39:02;19.33;;;8.47;;
39344;SDS011;25061;51.954;6.996;2022-11-20T08:41:29;18.23;;;8.63;;
39344;SDS011;25061;51.954;6.996;2022-11-20T08:44:01;19.83;;;9.47;;
39344;SDS011;25061;51.954;6.996;2022-11-20T08:46:31;23.10;;;9.33;;
39344;SDS011;25061;51.954;6.996;2022-11-20T08:49:02;19.83;;;10.03;;
39344;SDS011;25061;51.954;6.996;2022-11-20T08:51:28;19.33;;;9.13;;
39344;SDS011;25061;51.954;6.996;2022-11-20T08:53:54;20.73;;;10.27;;
39344;SDS011;25061;51.954;6.996;2022-11-20T08:56:20;19.23;;;10.27;;
39344;SDS011;25061;51.954;6.996;2022-11-20T08:58:46;19.45;;;9.82;;
39344;SDS011;25061;51.954;6.996;2022-11-20T09:01:12;24.63;;;11.75;;
39344;SDS011;25061;51.954;6.996;2022-11-20T09:03:38;25.52;;;12.40;;
39344;SDS011;25061;51.954;6.996;2022-11-20T09:06:05;21.95;;;10.45;;
39344;SDS011;25061;51.954;6.996;2022-11-20T09:08:31;25.25;;;12.70;;
39344;SDS011;25061;51.954;6.996;2022-11-20T09:10:58;28.80;;;13.00;;
39344;SDS011;25061;51.954;6.996;2022-11-20T09:13:25;21.55;;;11.27;;
39344;SDS011;25061;51.954;6.996;2022-11-20T09:16:01;21.70;;;10.68;;
39344;SDS011;25061;51.954;6.996;2022-11-20T09:18:27;20.23;;;10.60;;
39344;SDS011;25061;51.954;6.996;2022-11-20T09:20:57;21.77;;;10.80;;
39344;SDS011;25061;51.954;6.996;2022-11-20T09:23:23;24.25;;;10.25;;
39344;SDS011;25061;51.954;6.996;2022-11-20T09:25:50;21.30;;;10.27;;
39344;SDS011;25061;51.954;6.996;2022-11-20T09:28:17;24.15;;;10.70;;
39344;SDS011;25061;51.954;6.996;2022-11-20T09:30:43;20.05;;;9.48;;
39344;SDS011;25061;51.954;6.996;2022-11-20T09:33:09;21.15;;;10.63;;
39344;SDS011;25061;51.954;6.996;2022-11-20T09:35:35;21.70;;;10.73;;
39344;SDS011;25061;51.954;6.996;2022-11-20T09:38:05;22.17;;;10.70;;
39344;SDS011;25061;51.954;6.996;2022-11-20T09:40:31;23.33;;;11.13;;
39344;SDS011;25061;51.954;6.996;2022-11-20T09:43:10;20.92;;;10.68;;
39344;SDS011;25061;51.954;6.996;2022-11-20T09:54:08;24.35;;;11.07;;
39344;SDS011;25061;51.954;6.996;2022-11-20T09:56:37;27.20;;;13.32;;
39344;SDS011;25061;51.954;6.996;2022-11-20T09:59:05;24.50;;;11.73;;
39344;SDS011;25061;51.954;6.996;2022-11-20T10:01:33;25.42;;;11.95;;
39344;SDS011;25061;51.954;6.996;2022-11-20T10:04:02;25.20;;;11.52;;
39344;SDS011;25061;51.954;6.996;2022-11-20T10:06:30;25.40;;;11.73;;
39344;SDS011;25061;51.954;6.996;2022-11-20T10:09:00;23.67;;;10.45;;
39344;SDS011;25061;51.954;6.996;2022-11-20T10:14:12;27.42;;;12.65;;
39344;SDS011;25061;51.954;6.996;2022-11-20T10:24:24;20.55;;;11.38;;
39344;SDS011;25061;51.954;6.996;2022-11-20T10:29:22;23.27;;;11.02;;
39344;SDS011;25061;51.954;6.996;2022-11-20T10:31:56;22.65;;;11.82;;
39344;SDS011;25061;51.954;6.996;2022-11-20T10:34:27;21.90;;;11.63;;
39344;SDS011;25061;51.954;6.996;2022-11-20T10:36:55;21.52;;;10.93;;
39344;SDS011;25061;51.954;6.996;2022-11-20T10:39:35;25.80;;;11.88;;
39344;SDS011;25061;51.954;6.996;2022-11-20T10:42:02;24.65;;;12.00;;
39344;SDS011;25061;51.954;6.996;2022-11-20T10:44:30;23.17;;;11.02;;
39344;SDS011;25061;51.954;6.996;2022-11-20T10:47:15;20.58;;;10.23;;
39344;SDS011;25061;51.954;6.996;2022-11-20T10:49:42;23.95;;;9.85;;
39344;SDS011;25061;51.954;6.996;2022-11-20T10:52:25;18.95;;;9.73;;
39344;SDS011;25061;51.954;6.996;2022-11-20T10:55:05;19.65;;;9.90;;
39344;SDS011;25061;51.954;6.996;2022-11-20T11:00:11;20.27;;;10.38;;
39344;SDS011;25061;51.954;6.996;2022-11-20T11:02:43;19.77;;;10.30;;
39344;SDS011;25061;51.954;6.996;2022-11-20T11:05:12;20.08;;;10.02;;
39344;SDS011;25061;51.954;6.996;2022-11-20T11:07:40;19.33;;;9.25;;
39344;SDS011;25061;51.954;6.996;2022-11-20T11:12:46;20.35;;;9.65;;
39344;SDS011;25061;51.954;6.996;2022-11-20T11:15:58;19.50;;;10.00;;
39344;SDS011;25061;51.954;6.996;2022-11-20T11:17:59;19.63;;;10.07;;
39344;SDS011;25061;51.954;6.996;2022-11-20T11:20:25;24.33;;;10.55;;
39344;SDS011;25061;51.954;6.996;2022-11-20T11:22:56;20.08;;;9.38;;
39344;SDS011;25061;51.954;6.996;2022-11-20T11:25:26;19.35;;;9.43;;
39344;SDS011;25061;51.954;6.996;2022-11-20T11:27:53;21.02;;;10.18;;
39344;SDS011;25061;51.954;6.996;2022-11-20T11:30:21;18.85;;;8.95;;
39344;SDS011;25061;51.954;6.996;2022-11-20T11:32:47;21.42;;;9.50;;
39344;SDS011;25061;51.954;6.996;2022-11-20T11:35:23;21.70;;;9.45;;
39344;SDS011;25061;51.954;6.996;2022-11-20T11:37:50;16.38;;;8.32;;
39344;SDS011;25061;51.954;6.996;2022-11-20T11:40:18;18.50;;;8.98;;
39344;SDS011;25061;51.954;6.996;2022-11-20T11:42:53;18.15;;;8.68;;
39344;SDS011;25061;51.954;6.996;2022-11-20T11:45:19;16.63;;;8.57;;
39344;SDS011;25061;51.954;6.996;2022-11-20T11:47:47;18.83;;;9.70;;
39344;SDS011;25061;51.954;6.996;2022-11-20T11:55:32;25.05;;;10.82;;
39344;SDS011;25061;51.954;6.996;2022-11-20T12:00:54;16.40;;;8.00;;
39344;SDS011;25061;51.954;6.996;2022-11-20T12:03:27;15.63;;;7.72;;
39344;SDS011;25061;51.954;6.996;2022-11-20T12:08:24;15.13;;;7.53;;
39344;SDS011;25061;51.954;6.996;2022-11-20T12:13:39;18.77;;;7.90;;
39344;SDS011;25061;51.954;6.996;2022-11-20T12:16:07;15.10;;;7.75;;
39344;SDS011;25061;51.954;6.996;2022-11-20T12:18:34;17.65;;;7.82;;
39344;SDS011;25061;51.954;6.996;2022-11-20T12:21:09;15.85;;;7.68;;
39344;SDS011;25061;51.954;6.996;2022-11-20T12:26:14;18.80;;;8.98;;
39344;SDS011;25061;51.954;6.996;2022-11-20T12:28:47;18.17;;;8.48;;
39344;SDS011;25061;51.954;6.996;2022-11-20T12:33:53;19.15;;;9.73;;
39344;SDS011;25061;51.954;6.996;2022-11-20T12:36:27;20.90;;;10.45;;
39344;SDS011;25061;51.954;6.996;2022-11-20T12:39:01;20.05;;;9.55;;
39344;SDS011;25061;51.954;6.996;2022-11-20T12:49:51;19.83;;;8.90;;
39344;SDS011;25061;51.954;6.996;2022-11-20T12:52:40;17.70;;;9.05;;
39344;SDS011;25061;51.954;6.996;2022-11-20T12:55:16;19.58;;;9.68;;
39344;SDS011;25061;51.954;6.996;2022-11-20T12:57:49;19.35;;;9.52;;
39344;SDS011;25061;51.954;6.996;2022-11-20T13:00:23;18.85;;;9.30;;
39344;SDS011;25061;51.954;6.996;2022-11-20T13:03:00;19.33;;;9.35;;
39344;SDS011;25061;51.954;6.996;2022-11-20T13:08:19;17.02;;;8.63;;
39344;SDS011;25061;51.954;6.996;2022-11-20T13:10:55;18.02;;;8.95;;
39344;SDS011;25061;51.954;6.996;2022-11-20T13:18:28;18.60;;;9.07;;
39344;SDS011;25061;51.954;6.996;2022-11-20T13:20:56;19.95;;;8.85;;
39344;SDS011;25061;51.954;6.996;2022-11-20T13:23:25;21.77;;;10.32;;
39344;SDS011;25061;51.954;6.996;2022-11-20T13:26:02;22.50;;;10.98;;
39344;SDS011;25061;51.954;6.996;2022-11-20T13:28:29;21.95;;;10.77;;
39344;SDS011;25061;51.954;6.996;2022-11-20T13:30:56;21.90;;;10.07;;
39344;SDS011;25061;51.954;6.996;2022-11-20T13:33:29;21.80;;;11.27;;
39344;SDS011;25061;51.954;6.996;2022-11-20T13:35:57;20.88;;;10.35;;
39344;SDS011;25061;51.954;6.996;2022-11-20T13:38:24;23.02;;;10.77;;
39344;SDS011;25061;51.954;6.996;2022-11-20T13:40:51;24.48;;;10.90;;
39344;SDS011;25061;51.954;6.996;2022-11-20T13:43:21;23.05;;;11.38;;
39344;SDS011;25061;51.954;6.996;2022-11-20T13:45:58;20.77;;;9.35;;
39344;SDS011;25061;51.954;6.996;2022-11-20T13:48:26;25.38;;;11.68;;
39344;SDS011;25061;51.954;6.996;2022-11-20T13:50:55;19.70;;;10.27;;
39344;SDS011;25061;51.954;6.996;2022-11-20T13:53:35;26.33;;;12.40;;
39344;SDS011;25061;51.954;6.996;2022-11-20T14:01:17;26.13;;;11.25;;
39344;SDS011;25061;51.954;6.996;2022-11-20T14:03:46;23.75;;;11.10;;
39344;SDS011;25061;51.954;6.996;2022-11-20T14:06:14;22.40;;;10.02;;
39344;SDS011;25061;51.954;6.996;2022-11-20T14:08:43;21.45;;;10.25;;
39344;SDS011;25061;51.954;6.996;2022-11-20T14:11:18;19.15;;;9.35;;
39344;SDS011;25061;51.954;6.996;2022-11-20T14:13:51;25.55;;;11.25;;
39344;SDS011;25061;51.954;6.996;2022-11-20T14:16:22;21.33;;;10.10;;
39344;SDS011;25061;51.954;6.996;2022-11-20T14:18:48;20.85;;;9.65;;
39344;SDS011;25061;51.954;6.996;2022-11-20T14:21:24;20.10;;;10.48;;
39344;SDS011;25061;51.954;6.996;2022-11-20T14:23:52;21.10;;;9.52;;
39344;SDS011;25061;51.954;6.996;2022-11-20T14:26:18;22.10;;;9.85;;
39344;SDS011;25061;51.954;6.996;2022-11-20T14:28:48;22.40;;;10.65;;
39344;SDS011;25061;51.954;6.996;2022-11-20T14:31:18;20.77;;;10.75;;
39344;SDS011;25061;51.954;6.996;2022-11-20T14:33:46;19.80;;;10.77;;
39344;SDS011;25061;51.954;6.996;2022-11-20T14:36:16;21.25;;;9.50;;
39344;SDS011;25061;51.954;6.996;2022-11-20T14:38:43;22.77;;;11.80;;
39344;SDS011;25061;51.954;6.996;2022-11-20T14:41:14;22.05;;;10.95;;
39344;SDS011;25061;51.954;6.996;2022-11-20T14:43:44;21.80;;;10.68;;
39344;SDS011;25061;51.954;6.996;2022-11-20T14:46:10;26.25;;;11.70;;
39344;SDS011;25061;51.954;6.996;2022-11-20T14:48:45;22.88;;;10.77;;
39344;SDS011;25061;51.954;6.996;2022-11-20T14:51:12;19.70;;;9.55;;
39344;SDS011;25061;51.954;6.996;2022-11-20T14:53:48;17.40;;;9.88;;
39344;SDS011;25061;51.954;6.996;2022-11-20T14:56:20;21.35;;;10.48;;
39344;SDS011;25061;51.954;6.996;2022-11-20T14:58:54;18.73;;;9.65;;
39344;SDS011;25061;51.954;6.996;2022-11-20T15:01:25;19.88;;;10.20;;
39344;SDS011;25061;51.954;6.996;2022-11-20T15:03:57;18.83;;;9.75;;
39344;SDS011;25061;51.954;6.996;2022-11-20T15:06:25;24.35;;;11.77;;
39344;SDS011;25061;51.954;6.996;2022-11-20T15:08:52;22.85;;;11.52;;
39344;SDS011;25061;51.954;6.996;2022-11-20T15:11:18;22.77;;;10.98;;
39344;SDS011;25061;51.954;6.996;2022-11-20T15:13:45;20.98;;;11.02;;
39344;SDS011;25061;51.954;6.996;2022-11-20T15:16:14;19.92;;;10.65;;
39344;SDS011;25061;51.954;6.996;2022-11-20T15:18:41;21.63;;;10.98;;
39344;SDS011;25061;51.954;6.996;2022-11-20T15:21:11;21.65;;;11.32;;
39344;SDS011;25061;51.954;6.996;2022-11-20T15:23:38;24.60;;;10.52;;
39344;SDS011;25061;51.954;6.996;2022-11-20T15:26:04;19.23;;;10.13;;
39344;SDS011;25061;51.954;6.996;2022-11-20T15:28:34;22.88;;;11.52;;
39344;SDS011;25061;51.954;6.996;2022-11-20T15:31:02;19.98;;;9.80;;
39344;SDS011;25061;51.954;6.996;2022-11-20T15:33:29;24.67;;;11.27;;
39344;SDS011;25061;51.954;6.996;2022-11-20T15:35:55;23.33;;;10.93;;
39344;SDS011;25061;51.954;6.996;2022-11-20T15:38:21;21.38;;;10.88;;
39344;SDS011;25061;51.954;6.996;2022-11-20T15:40:47;23.67;;;11.18;;
39344;SDS011;25061;51.954;6.996;2022-11-20T15:43:13;23.80;;;11.68;;
39344;SDS011;25061;51.954;6.996;2022-11-20T15:45:40;23.13;;;12.80;;
39344;SDS011;25061;51.954;6.996;2022-11-20T15:48:11;20.92;;;10.48;;
39344;SDS011;25061;51.954;6.996;2022-11-20T15:50:39;24.80;;;11.40;;
39344;SDS011;25061;51.954;6.996;2022-11-20T15:53:07;23.00;;;10.15;;